createdAt,value
2023-02-24T00:02:01.654Z,97195.22
2023-02-24T00:04:33.056Z,97193.13
2023-02-24T00:07:01.056Z,97188.16
2023-02-24T00:09:30.516Z,97194.06
2023-02-24T00:12:04.547Z,97190.03
2023-02-24T00:14:35.429Z,97187.97
2023-02-24T00:17:03.415Z,97186.13
2023-02-24T00:19:35.644Z,97182.28
2023-02-24T00:22:05.622Z,97185.53
2023-02-24T00:24:34.038Z,97174.56
2023-02-24T00:27:07.911Z,97176.63
2023-02-24T00:29:40.372Z,97172.13
2023-02-24T00:32:13.158Z,97170.50
2023-02-24T00:34:42.230Z,97169.09
2023-02-24T00:37:09.882Z,97167.94
2023-02-24T00:39:41.826Z,97173.00
2023-02-24T00:42:12.172Z,97175.00
2023-02-24T00:44:44.008Z,97170.66
2023-02-24T00:47:12.358Z,97167.19
2023-02-24T00:49:43.030Z,97158.19
2023-02-24T00:52:28.027Z,97162.25
2023-02-24T00:54:55.927Z,97156.56
2023-02-24T00:57:23.535Z,97163.25
2023-02-24T00:59:52.332Z,97157.94
2023-02-24T01:02:20.760Z,97156.13
2023-02-24T01:04:50.112Z,97162.09
2023-02-24T01:07:17.727Z,97151.13
2023-02-24T01:09:45.449Z,97156.66
2023-02-24T01:12:32.272Z,97141.63
2023-02-24T01:15:00.124Z,97147.78
2023-02-24T01:17:27.757Z,97138.50
2023-02-24T01:20:00.886Z,97134.69
2023-02-24T01:22:28.580Z,97131.44
2023-02-24T01:24:56.233Z,97138.31
2023-02-24T01:27:24.013Z,97141.19
2023-02-24T01:29:51.634Z,97135.88
2023-02-24T01:32:22.026Z,97131.91
2023-02-24T01:34:53.303Z,97142.84
2023-02-24T01:37:21.698Z,97127.50
2023-02-24T01:39:50.456Z,97129.69
2023-02-24T01:42:20.646Z,97134.97
2023-02-24T01:44:48.245Z,97129.53
2023-02-24T01:47:22.790Z,97130.13
2023-02-24T01:49:54.457Z,97126.88
2023-02-24T01:52:32.518Z,97117.88
2023-02-24T01:55:23.326Z,97112.22
2023-02-24T01:57:52.941Z,97126.28
2023-02-24T02:00:39.152Z,97124.41
2023-02-24T02:03:16.309Z,97115.56
2023-02-24T02:05:48.725Z,97099.66
2023-02-24T02:08:18.756Z,97101.41
2023-02-24T02:10:47.251Z,97101.84
2023-02-24T02:13:21.257Z,97104.31
2023-02-24T02:16:03.109Z,97093.84
2023-02-24T02:18:41.265Z,97083.69
2023-02-24T02:21:36.376Z,97097.16
2023-02-24T02:24:25.119Z,97087.81
2023-02-24T02:26:57.914Z,97084.06
2023-02-24T02:29:51.913Z,97085.84
2023-02-24T02:33:01.891Z,97083.75
2023-02-24T02:36:07.406Z,97084.00
2023-02-24T02:38:58.615Z,97076.94
2023-02-24T02:41:40.404Z,97074.44
2023-02-24T02:44:22.659Z,97078.78
2023-02-24T02:47:23.937Z,97070.41
2023-02-24T02:50:08.249Z,97069.44
2023-02-24T02:52:46.257Z,97064.34
2023-02-24T02:55:21.805Z,97072.72
2023-02-24T02:57:53.611Z,97075.34
2023-02-24T03:00:29.548Z,97069.19
2023-02-24T03:03:04.094Z,97066.63
2023-02-24T03:05:46.634Z,97062.38
2023-02-24T03:08:19.905Z,97060.69
2023-02-24T03:10:51.511Z,97057.81
2023-02-24T03:13:24.173Z,97052.50
2023-02-24T03:15:53.915Z,97055.03
2023-02-24T03:18:34.883Z,97060.31
2023-02-24T03:21:12.047Z,97056.91
2023-02-24T03:23:51.075Z,97051.78
2023-02-24T03:26:32.305Z,97048.09
2023-02-24T03:29:24.452Z,97047.53
2023-02-24T03:32:20.931Z,97042.34
2023-02-24T03:34:57.619Z,97042.44
2023-02-24T03:37:33.666Z,97034.72
2023-02-24T03:40:11.745Z,97034.72
2023-02-24T03:42:54.545Z,97030.25
2023-02-24T03:45:24.160Z,97037.94
2023-02-24T03:47:54.338Z,97041.19
2023-02-24T03:50:23.058Z,97037.81
2023-02-24T03:53:32.116Z,97031.34
2023-02-24T03:56:40.573Z,97031.34
2023-02-24T03:59:28.684Z,97029.94
2023-02-24T04:02:20.935Z,97032.25
2023-02-24T04:05:15.110Z,97028.03
2023-02-24T04:08:04.294Z,97028.19
2023-02-24T04:10:39.373Z,97023.94
2023-02-24T04:13:35.507Z,97027.03
2023-02-24T04:16:43.298Z,97030.91
2023-02-24T04:19:17.071Z,97031.34
2023-02-24T04:21:49.116Z,97026.28
2023-02-24T04:24:27.764Z,97028.25
2023-02-24T04:26:59.543Z,97022.97
2023-02-24T04:29:35.844Z,97024.56
2023-02-24T04:32:08.037Z,97022.34
2023-02-24T04:34:36.183Z,97011.22
2023-02-24T04:37:03.883Z,97014.72
2023-02-24T04:39:32.493Z,97007.00
2023-02-24T04:42:01.893Z,97007.06
2023-02-24T04:44:29.741Z,97002.41
2023-02-24T04:46:57.363Z,97000.44
2023-02-24T04:49:25.104Z,96997.19
2023-02-24T04:51:53.124Z,96984.56
2023-02-24T04:54:21.389Z,96990.06
2023-02-24T04:56:51.058Z,96988.25
2023-02-24T04:59:21.021Z,96993.09
2023-02-24T05:01:51.835Z,96980.31
2023-02-24T05:04:19.930Z,96982.94
2023-02-24T05:06:47.548Z,96977.69
2023-02-24T05:09:19.976Z,96972.22
2023-02-24T05:11:51.121Z,96973.63
2023-02-24T05:14:24.847Z,96970.44
2023-02-24T05:16:53.059Z,96967.78
2023-02-24T05:19:39.498Z,96972.47
2023-02-24T05:22:14.592Z,96974.75
2023-02-24T05:24:42.317Z,96967.25
2023-02-24T05:27:10.139Z,96966.59
2023-02-24T05:29:37.997Z,96958.53
2023-02-24T05:32:05.865Z,96959.09
2023-02-24T05:34:34.166Z,96967.03
2023-02-24T05:37:10.371Z,96966.28
2023-02-24T05:39:38.475Z,96958.19
2023-02-24T05:42:06.851Z,96951.34
2023-02-24T05:44:46.848Z,96951.72
2023-02-24T05:47:17.323Z,96949.88
2023-02-24T05:49:45.051Z,96952.88
2023-02-24T05:52:14.405Z,96952.31
2023-02-24T05:54:44.199Z,96945.81
2023-02-24T05:57:20.596Z,96944.81
2023-02-24T05:59:52.045Z,96947.66
2023-02-24T06:02:28.031Z,96947.28
2023-02-24T06:04:56.119Z,96945.44
2023-02-24T06:07:26.276Z,96951.13
2023-02-24T06:09:57.603Z,96943.63
2023-02-24T06:12:28.398Z,96943.41
2023-02-24T06:14:58.413Z,96934.75
2023-02-24T06:17:27.253Z,96928.91
2023-02-24T06:19:55.311Z,96941.88
2023-02-24T06:22:25.252Z,96939.47
2023-02-24T06:24:54.822Z,96948.50
2023-02-24T06:27:25.399Z,96952.19
2023-02-24T06:29:55.096Z,96950.41
2023-02-24T06:32:25.356Z,96953.47
2023-02-24T06:34:54.314Z,96957.34
2023-02-24T06:37:23.495Z,96956.34
2023-02-24T06:39:51.320Z,96951.91
2023-02-24T06:42:19.128Z,96946.22
2023-02-24T06:44:46.972Z,96946.03
2023-02-24T06:47:16.499Z,96947.81
2023-02-24T06:49:44.312Z,96947.47
2023-02-24T06:52:18.761Z,96950.38
2023-02-24T06:54:52.586Z,96947.94
2023-02-24T06:57:20.879Z,96953.28
2023-02-24T06:59:49.185Z,96950.84
2023-02-24T07:02:17.895Z,96948.41
2023-02-24T07:04:45.581Z,96951.09
2023-02-24T07:07:17.735Z,96945.06
2023-02-24T07:09:45.711Z,96945.75
2023-02-24T07:12:13.661Z,96946.16
2023-02-24T07:14:41.503Z,96942.75
2023-02-24T07:17:09.194Z,96943.38
2023-02-24T07:19:37.077Z,96947.84
2023-02-24T07:22:05.215Z,96947.59
2023-02-24T07:24:39.491Z,96948.00
2023-02-24T07:27:11.693Z,96948.41
2023-02-24T07:29:39.655Z,96940.50
2023-02-24T07:32:09.456Z,96934.47
2023-02-24T07:34:40.655Z,96944.19
2023-02-24T07:37:10.082Z,96937.09
2023-02-24T07:39:39.547Z,96935.47
2023-02-24T07:42:09.617Z,96934.84
2023-02-24T07:44:49.346Z,96924.91
2023-02-24T07:47:17.336Z,96922.84
2023-02-24T07:49:45.732Z,96924.66
2023-02-24T07:52:13.805Z,96922.28
2023-02-24T07:54:41.727Z,96931.78
2023-02-24T07:57:14.174Z,96917.78
2023-02-24T07:59:47.763Z,96912.09
2023-02-24T08:02:16.167Z,96907.63
2023-02-24T08:04:50.600Z,96911.66
2023-02-24T08:07:25.219Z,96907.59
2023-02-24T08:10:14.707Z,96905.34
2023-02-24T08:12:43.055Z,96914.69
2023-02-24T08:15:17.613Z,96910.00
2023-02-24T08:17:47.731Z,96907.38
2023-02-24T08:20:16.035Z,96895.72
2023-02-24T08:22:47.326Z,96891.72
2023-02-24T08:25:19.137Z,96890.09
2023-02-24T08:28:07.453Z,96884.66
2023-02-24T08:30:39.840Z,96875.50
2023-02-24T08:33:11.145Z,96883.41
2023-02-24T08:35:45.076Z,96871.84
2023-02-24T08:38:19.680Z,96870.63
2023-02-24T08:40:50.758Z,96874.53
2023-02-24T08:43:38.533Z,96864.22
2023-02-24T08:46:21.648Z,96870.72
2023-02-24T08:48:55.887Z,96859.94
2023-02-24T08:51:30.348Z,96851.16
2023-02-24T08:54:01.060Z,96855.38
2023-02-24T08:56:35.190Z,96853.41
2023-02-24T08:59:06.000Z,96848.22
2023-02-24T09:01:38.784Z,96845.00
2023-02-24T09:04:12.397Z,96844.19
2023-02-24T09:06:47.185Z,96840.34
2023-02-24T09:09:23.663Z,96841.75
2023-02-24T09:11:56.699Z,96843.38
2023-02-24T09:14:36.735Z,96854.94
2023-02-24T09:17:11.585Z,96843.38
2023-02-24T09:19:48.096Z,96836.91
2023-02-24T09:22:40.547Z,96839.13
2023-02-24T09:25:40.877Z,96829.81
2023-02-24T09:28:17.647Z,96822.31
2023-02-24T09:30:53.752Z,96819.28
2023-02-24T09:33:23.402Z,96818.44
2023-02-24T09:36:17.671Z,96809.50
2023-02-24T09:39:00.938Z,96802.16
2023-02-24T09:41:56.775Z,96811.28
2023-02-24T09:44:29.438Z,96800.47
2023-02-24T09:47:13.663Z,96789.66
2023-02-24T09:49:49.889Z,96786.97
2023-02-24T09:52:19.049Z,96786.81
2023-02-24T09:55:08.782Z,96780.22
2023-02-24T09:58:11.210Z,96774.56
2023-02-24T10:00:45.427Z,96759.63
2023-02-24T10:03:42.993Z,96746.91
2023-02-24T10:06:23.908Z,96744.53
2023-02-24T10:09:00.169Z,96737.84
2023-02-24T10:11:33.268Z,96724.47
2023-02-24T10:14:09.805Z,96717.00
2023-02-24T10:16:43.709Z,96703.34
2023-02-24T10:19:29.492Z,96698.22
2023-02-24T10:22:05.280Z,96693.91
2023-02-24T10:24:47.727Z,96701.13
2023-02-24T10:27:24.246Z,96701.06
2023-02-24T10:30:05.395Z,96706.44
2023-02-24T10:32:51.247Z,96700.06
2023-02-24T10:35:26.249Z,96691.09
2023-02-24T10:37:59.177Z,96682.06
2023-02-24T10:40:44.103Z,96678.66
2023-02-24T10:43:18.035Z,96681.81
2023-02-24T10:45:47.832Z,96659.38
2023-02-24T10:48:41.483Z,96649.41
2023-02-24T10:51:22.640Z,96647.75
2023-02-24T10:54:14.564Z,96643.38
2023-02-24T10:56:45.085Z,96630.91
2023-02-24T10:59:25.424Z,96624.75
2023-02-24T11:02:06.963Z,96615.09
2023-02-24T11:04:54.206Z,96610.63
2023-02-24T11:07:25.420Z,96605.72
2023-02-24T11:10:11.626Z,96601.94
2023-02-24T11:13:10.547Z,96591.84
2023-02-24T11:16:05.215Z,96583.66
2023-02-24T11:18:33.892Z,96580.25
2023-02-24T11:21:12.825Z,96572.13
2023-02-24T11:24:03.120Z,96563.38
2023-02-24T11:26:41.119Z,96562.88
2023-02-24T11:29:26.540Z,96559.78
2023-02-24T11:32:15.528Z,96555.75
2023-02-24T11:35:12.665Z,96539.34
2023-02-24T11:38:02.012Z,96529.13
2023-02-24T11:40:37.428Z,96528.44
2023-02-24T11:43:25.239Z,96519.25
2023-02-24T11:46:00.860Z,96511.84
2023-02-24T11:48:34.754Z,96506.06
2023-02-24T11:51:03.619Z,96508.16
2023-02-24T11:53:55.686Z,96496.22
2023-02-24T11:56:28.244Z,96490.13
2023-02-24T11:59:06.381Z,96488.19
2023-02-24T12:01:46.834Z,96485.06
2023-02-24T12:04:21.088Z,96481.63
2023-02-24T12:07:00.588Z,96469.56
2023-02-24T12:09:34.319Z,96466.34
2023-02-24T12:12:08.546Z,96449.78
2023-02-24T12:14:50.492Z,96441.34
2023-02-24T12:17:35.069Z,96439.09
2023-02-24T12:20:06.084Z,96435.66
2023-02-24T12:22:46.248Z,96441.75
2023-02-24T12:25:15.233Z,96434.63
2023-02-24T12:28:13.151Z,96431.00
2023-02-24T12:31:03.487Z,96427.09
2023-02-24T12:33:31.341Z,96436.00
2023-02-24T12:36:04.630Z,96423.28
2023-02-24T12:38:41.054Z,96420.72
2023-02-24T12:41:23.814Z,96417.31
2023-02-24T12:44:03.019Z,96411.28
2023-02-24T12:46:38.601Z,96414.66
2023-02-24T12:49:36.413Z,96404.34
2023-02-24T12:52:40.369Z,96402.09
2023-02-24T12:55:18.275Z,96401.63
2023-02-24T12:57:56.077Z,96392.09
2023-02-24T13:00:35.954Z,96386.88
2023-02-24T13:03:15.814Z,96386.38
2023-02-24T13:05:51.617Z,96390.09
2023-02-24T13:08:43.918Z,96384.78
2023-02-24T13:11:30.448Z,96372.88
2023-02-24T13:14:16.964Z,96377.69
2023-02-24T13:16:44.836Z,96377.78
2023-02-24T13:19:30.075Z,96367.44
2023-02-24T13:22:09.057Z,96363.88
2023-02-24T13:24:36.941Z,96358.19
2023-02-24T13:27:15.103Z,96353.50
2023-02-24T13:29:57.174Z,96348.00
2023-02-24T13:32:34.415Z,96345.69
2023-02-24T13:35:05.919Z,96338.50
2023-02-24T13:37:37.959Z,96338.28
2023-02-24T13:40:24.032Z,96327.03
2023-02-24T13:43:00.291Z,96332.97
2023-02-24T13:45:29.396Z,96320.69
2023-02-24T13:48:19.392Z,96325.34
2023-02-24T13:51:04.961Z,96321.59
2023-02-24T13:53:32.678Z,96314.53
2023-02-24T13:56:21.753Z,96312.09
2023-02-24T13:59:24.354Z,96311.00
2023-02-24T14:02:03.069Z,96311.25
2023-02-24T14:04:33.373Z,96311.94
2023-02-24T14:07:11.866Z,96305.94
2023-02-24T14:10:23.449Z,96294.78
2023-02-24T14:13:17.409Z,96297.34
2023-02-24T14:15:47.906Z,96290.03
2023-02-24T14:18:21.191Z,96297.28
2023-02-24T14:20:48.787Z,96287.16
2023-02-24T14:23:22.588Z,96283.78
2023-02-24T14:25:57.530Z,96285.06
2023-02-24T14:28:40.023Z,96279.44
2023-02-24T14:31:16.945Z,96280.47
2023-02-24T14:33:45.997Z,96279.47
2023-02-24T14:36:37.315Z,96274.63
2023-02-24T14:39:14.928Z,96269.59
2023-02-24T14:41:43.420Z,96265.19
2023-02-24T14:44:28.606Z,96263.56
2023-02-24T14:46:58.615Z,96265.97
2023-02-24T14:49:32.665Z,96254.97
2023-02-24T14:52:12.104Z,96259.00
2023-02-24T14:54:47.925Z,96250.63
2023-02-24T14:57:20.321Z,96250.63
2023-02-24T14:59:53.867Z,96252.81
2023-02-24T15:02:29.089Z,96254.59
2023-02-24T15:04:57.787Z,96252.34
2023-02-24T15:07:35.180Z,96251.06
2023-02-24T15:10:05.117Z,96243.03
2023-02-24T15:12:37.070Z,96246.53
2023-02-24T15:15:17.942Z,96244.81
2023-02-24T15:17:48.356Z,96243.22
2023-02-24T15:20:26.733Z,96234.91
2023-02-24T15:22:54.589Z,96233.16
2023-02-24T15:25:37.210Z,96229.41
2023-02-24T15:28:22.975Z,96230.78
2023-02-24T15:31:05.178Z,96212.47
2023-02-24T15:33:40.240Z,96219.50
2023-02-24T15:36:12.588Z,96211.59
2023-02-24T15:38:43.727Z,96208.72
2023-02-24T15:41:13.196Z,96208.63
2023-02-24T15:43:43.614Z,96204.38
2023-02-24T15:46:37.466Z,96201.16
2023-02-24T15:49:05.716Z,96209.09
2023-02-24T15:51:42.305Z,96199.13
2023-02-24T15:54:14.434Z,96196.47
2023-02-24T15:56:43.573Z,96189.81
2023-02-24T15:59:14.897Z,96186.06
2023-02-24T16:01:42.634Z,96187.91
2023-02-24T16:04:10.511Z,96182.50
2023-02-24T16:06:42.464Z,96177.13
2023-02-24T16:09:15.846Z,96175.28
2023-02-24T16:11:47.404Z,96175.97
2023-02-24T16:14:18.493Z,96171.06
2023-02-24T16:16:46.309Z,96171.63
2023-02-24T16:19:16.086Z,96174.03
2023-02-24T16:21:44.593Z,96167.41
2023-02-24T16:24:12.693Z,96166.81
2023-02-24T16:26:41.308Z,96157.53
2023-02-24T16:29:14.597Z,96157.78
2023-02-24T16:31:42.848Z,96155.34
2023-02-24T16:34:15.465Z,96154.31
2023-02-24T16:36:44.044Z,96148.47
2023-02-24T16:39:14.248Z,96145.84
2023-02-24T16:41:42.218Z,96144.59
2023-02-24T16:44:10.935Z,96140.78
2023-02-24T16:46:41.362Z,96153.34
2023-02-24T16:49:13.068Z,96153.22
2023-02-24T16:51:40.927Z,96149.78
2023-02-24T16:54:08.785Z,96150.50
2023-02-24T16:56:36.857Z,96153.69
2023-02-24T16:59:04.532Z,96148.53
2023-02-24T17:01:32.487Z,96152.69
2023-02-24T17:04:00.411Z,96157.03
2023-02-24T17:06:29.323Z,96158.19
2023-02-24T17:08:57.082Z,96151.66
2023-02-24T17:11:27.763Z,96153.59
2023-02-24T17:13:55.651Z,96151.72
2023-02-24T17:16:24.023Z,96155.28
2023-02-24T17:18:51.994Z,96139.94
2023-02-24T17:21:19.711Z,96145.91
2023-02-24T17:23:47.488Z,96142.94
2023-02-24T17:26:16.405Z,96145.09
2023-02-24T17:28:44.286Z,96141.19
2023-02-24T17:31:12.611Z,96145.50
2023-02-24T17:33:41.249Z,96142.19
2023-02-24T17:36:08.984Z,96147.34
2023-02-24T17:38:36.744Z,96146.56
2023-02-24T17:41:04.582Z,96138.19
2023-02-24T17:43:32.232Z,96132.53
2023-02-24T17:46:02.886Z,96127.06
2023-02-24T17:48:31.762Z,96126.28
2023-02-24T17:50:59.428Z,96121.22
2023-02-24T17:53:28.624Z,96127.53
2023-02-24T17:56:06.236Z,96115.00
2023-02-24T17:58:34.908Z,96119.72
2023-02-24T18:01:05.913Z,96110.56
2023-02-24T18:03:35.887Z,96108.59
2023-02-24T18:06:09.894Z,96112.72
2023-02-24T18:08:38.525Z,96111.91
2023-02-24T18:11:07.953Z,96107.63
2023-02-24T18:13:36.220Z,96105.22
2023-02-24T18:16:12.781Z,96101.81
2023-02-24T18:18:41.356Z,96103.41
2023-02-24T18:21:09.101Z,96101.22
2023-02-24T18:23:40.540Z,96096.06
2023-02-24T18:26:10.539Z,96095.00
2023-02-24T18:28:39.028Z,96098.34
2023-02-24T18:31:16.143Z,96091.22
2023-02-24T18:33:44.265Z,96096.22
2023-02-24T18:36:12.293Z,96102.06
2023-02-24T18:38:40.127Z,96096.47
2023-02-24T18:41:19.820Z,96084.69
2023-02-24T18:43:49.062Z,96087.16
2023-02-24T18:46:17.818Z,96082.66
2023-02-24T18:48:46.452Z,96086.69
2023-02-24T18:51:20.484Z,96084.13
2023-02-24T18:53:50.167Z,96081.31
2023-02-24T18:56:22.671Z,96073.03
2023-02-24T18:58:52.686Z,96066.84
2023-02-24T19:01:25.132Z,96063.84
2023-02-24T19:03:55.540Z,96058.13
2023-02-24T19:06:25.051Z,96057.88
2023-02-24T19:09:12.260Z,96061.44
2023-02-24T19:11:41.227Z,96050.13
2023-02-24T19:14:11.973Z,96050.75
2023-02-24T19:16:40.401Z,96049.81
2023-02-24T19:19:08.254Z,96042.53
2023-02-24T19:21:36.031Z,96046.25
2023-02-24T19:24:08.412Z,96041.81
2023-02-24T19:26:36.340Z,96033.59
2023-02-24T19:29:04.322Z,96026.91
2023-02-24T19:31:34.289Z,96023.00
2023-02-24T19:34:05.111Z,96031.34
2023-02-24T19:36:35.143Z,96028.88
2023-02-24T19:39:03.023Z,96034.13
2023-02-24T19:41:31.141Z,96029.66
2023-02-24T19:43:59.183Z,96030.00
2023-02-24T19:46:27.201Z,96023.47
2023-02-24T19:48:56.743Z,96021.22
2023-02-24T19:51:25.006Z,96016.00
2023-02-24T19:53:54.599Z,96008.81
2023-02-24T19:56:28.169Z,96014.25
2023-02-24T19:58:57.518Z,96017.00
2023-02-24T20:01:27.634Z,96005.31
2023-02-24T20:03:58.227Z,96010.31
2023-02-24T20:06:31.457Z,96013.72
2023-02-24T20:09:00.224Z,96008.69
2023-02-24T20:11:30.001Z,96009.13
2023-02-24T20:13:57.723Z,96001.81
2023-02-24T20:16:27.074Z,96017.16
2023-02-24T20:18:55.758Z,96003.94
2023-02-24T20:21:23.410Z,96003.66
2023-02-24T20:23:51.562Z,96001.38
2023-02-24T20:26:20.606Z,96002.78
2023-02-24T20:28:48.559Z,96005.53
2023-02-24T20:31:21.109Z,95999.91
2023-02-24T20:33:49.685Z,96002.34
2023-02-24T20:36:22.003Z,95999.03
2023-02-24T20:38:50.203Z,95993.56
2023-02-24T20:41:19.041Z,95989.88
2023-02-24T20:43:47.262Z,95985.50
2023-02-24T20:46:16.505Z,95988.28
2023-02-24T20:48:44.820Z,95987.13
2023-02-24T20:51:12.877Z,95975.34
2023-02-24T20:53:55.914Z,95967.59
2023-02-24T20:56:25.662Z,95962.00
2023-02-24T20:59:00.092Z,95969.28
2023-02-24T21:01:29.590Z,95967.47
2023-02-24T21:03:57.499Z,95967.34
2023-02-24T21:06:26.238Z,95961.69
2023-02-24T21:08:54.458Z,95961.13
2023-02-24T21:11:23.809Z,95963.97
2023-02-24T21:13:52.531Z,95959.06
2023-02-24T21:16:21.946Z,95945.28
2023-02-24T21:18:51.700Z,95951.47
2023-02-24T21:21:20.423Z,95949.06
2023-02-24T21:23:48.834Z,95945.84
2023-02-24T21:26:17.972Z,95949.84
2023-02-24T21:28:46.497Z,95948.94
2023-02-24T21:31:18.138Z,95938.31
2023-02-24T21:33:50.885Z,95931.38
2023-02-24T21:36:21.567Z,95932.72
2023-02-24T21:38:49.695Z,95920.72
2023-02-24T21:41:20.752Z,95919.56
2023-02-24T21:43:51.956Z,95913.84
2023-02-24T21:46:19.813Z,95902.94
2023-02-24T21:48:47.518Z,95902.28
2023-02-24T21:51:15.353Z,95905.97
2023-02-24T21:53:44.600Z,95913.47
2023-02-24T21:56:19.486Z,95901.72
2023-02-24T21:58:50.444Z,95908.22
2023-02-24T22:01:25.173Z,95903.34
2023-02-24T22:03:58.173Z,95905.81
2023-02-24T22:06:31.027Z,95908.25
2023-02-24T22:09:00.350Z,95908.03
2023-02-24T22:11:30.120Z,95908.50
2023-02-24T22:13:57.955Z,95910.44
2023-02-24T22:16:26.497Z,95911.59
2023-02-24T22:18:55.985Z,95898.56
2023-02-24T22:21:26.081Z,95895.59
2023-02-24T22:23:57.080Z,95892.75
2023-02-24T22:26:26.924Z,95896.72
2023-02-24T22:28:55.708Z,95902.22
2023-02-24T22:31:27.199Z,95899.34
2023-02-24T22:33:54.947Z,95902.56
2023-02-24T22:36:31.310Z,95885.53
2023-02-24T22:39:00.830Z,95887.72
2023-02-24T22:41:33.732Z,95888.63
2023-02-24T22:44:02.900Z,95880.50
2023-02-24T22:46:34.018Z,95876.94
2023-02-24T22:49:02.136Z,95878.53
2023-02-24T22:51:30.402Z,95880.69
2023-02-24T22:53:58.134Z,95872.22
2023-02-24T22:56:27.578Z,95887.00
2023-02-24T22:58:55.834Z,95877.94
2023-02-24T23:01:29.481Z,95872.22
2023-02-24T23:04:00.306Z,95875.31
2023-02-24T23:06:28.451Z,95860.81
2023-02-24T23:08:57.929Z,95862.59
2023-02-24T23:11:29.644Z,95867.31
2023-02-24T23:13:59.643Z,95852.09
2023-02-24T23:16:32.125Z,95847.47
2023-02-24T23:19:04.485Z,95852.16
2023-02-24T23:21:38.327Z,95858.59
2023-02-24T23:24:07.713Z,95849.06
2023-02-24T23:26:38.763Z,95849.97
2023-02-24T23:29:07.237Z,95855.38
2023-02-24T23:31:35.925Z,95863.16
2023-02-24T23:34:07.256Z,95858.34
2023-02-24T23:36:39.676Z,95848.28
2023-02-24T23:39:09.147Z,95858.44
2023-02-24T23:41:37.963Z,95854.22
2023-02-24T23:44:06.319Z,95866.78
2023-02-24T23:46:35.724Z,95860.94
2023-02-24T23:49:04.203Z,95855.91
2023-02-24T23:51:47.003Z,95862.31
2023-02-24T23:54:18.167Z,95856.94
2023-02-24T23:56:46.801Z,95857.16
2023-02-24T23:59:15.069Z,95859.00
